Data for 01/07/2006

Time Sea-Level Adjusted Pressure Absolute Pressure Temperature Relative Humidity Dew Point   
(mb) (inHg) (mb) (inHg) (C) (F) (%) (C) (F)
00:05 1012 29.88 842 24.86 3.6 38.4 43 -7.9 17.8
00:10 1012 29.88 841 24.83 3.6 38.6 41 -8.3 17.1
00:15 1012 29.88 842 24.86 4 39.1 40 -8.5 16.7
00:20 1012 29.88 841 24.83 3.5 38.3 42 -8.3 17.1
00:25 1012 29.88 841 24.83 3.5 38.4 41 -8.4 16.9
00:30 1012 29.88 841 24.83 3.1 37.7 43 -8.2 17.2
00:35 1012 29.88 841 24.83 3.1 37.5 43 -8.4 16.9
00:40 1012 29.88 841 24.83 3.2 37.8 42 -8.6 16.6
00:45 1012 29.88 841 24.83 3.2 37.8 42 -8.4 16.8
00:50 1012 29.88 841 24.83 3.1 37.6 44 -8.1 17.4
00:55 1012 29.88 841 24.83 3.2 37.8 41 -8.7 16.3
01:00 1012 29.88 841 24.83 3.7 38.6 40 -8.6 16.4
01:05 1012 29.88 841 24.83 3.8 38.8 39 -9 15.8
01:10 1012 29.88 841 24.83 3.9 38.9 38 -9.2 15.5
01:15 1012 29.88 841 24.83 3.9 39 38 -9 15.7
01:20 1012 29.88 841 24.83 4.3 39.7 37 -9.1 15.7
01:25 1012 29.88 841 24.83 4.4 39.9 35 -9.7 14.5
01:30 1012 29.88 841 24.83 4.1 39.4 40 -8.3 17.1
01:35 1012 29.88 841 24.83 3.7 38.6 40 -8.8 16.1
01:40 1012 29.88 841 24.83 3.7 38.7 42 -8 17.6
01:45 1012 29.88 841 24.83 3.2 37.7 44 -8.1 17.5
01:50 1011 29.85 841 24.83 2.3 36.1 44 -8.6 16.5
01:55 1011 29.85 841 24.83 2.9 37.3 43 -8.5 16.8
02:00 1011 29.85 841 24.83 3.3 37.9 42 -8.6 16.6
02:05 1011 29.85 840 24.81 3.1 37.6 42 -8.7 16.4
02:10 1011 29.85 840 24.81 3 37.3 43 -8.6 16.6
02:15 1011 29.85 840 24.81 2.8 37 43 -8.5 16.7
02:20 1011 29.85 840 24.81 3.1 37.5 43 -8.4 16.9
02:25 1011 29.85 840 24.81 3.2 37.8 41 -8.9 16
02:30 1011 29.85 840 24.81 3.3 38 40 -9 15.9
02:35 1011 29.85 840 24.81 3 37.4 42 -8.8 16.2
02:40 1011 29.85 840 24.81 3.4 38.2 39 -9.2 15.4
02:45 1011 29.85 840 24.81 3.9 39.1 39 -8.9 16
02:50 1011 29.85 840 24.81 3.8 38.9 40 -8.7 16.4
02:55 1011 29.85 840 24.81 3.3 38 43 -8.2 17.3
03:00 1011 29.85 840 24.81 3.1 37.5 44 -8.2 17.3
03:05 1011 29.85 840 24.81 3.2 37.8 42 -8.5 16.6
03:10 1011 29.85 840 24.81 3.3 38 41 -8.6 16.5
03:15 1011 29.85 840 24.81 3.4 38.1 40 -8.8 16.1
03:20 1011 29.85 840 24.81 3.8 38.8 39 -8.9 16
03:25 1011 29.85 840 24.81 3.7 38.6 40 -8.8 16.1
03:30 1011 29.85 840 24.81 3.4 38.2 41 -8.5 16.7
03:35 1010 29.83 840 24.81 3.7 38.6 41 -8.3 17.1
03:40 1010 29.83 839 24.78 3.7 38.6 42 -8.2 17.2
03:45 1010 29.83 840 24.81 3.4 38.2 41 -8.5 16.8
03:50 1010 29.83 839 24.78 3.3 37.9 43 -8.3 17.1
03:55 1010 29.83 839 24.78 3 37.5 43 -8.3 17.1
04:00 1010 29.83 839 24.78 2.8 37.1 44 -8.3 17
04:05 1010 29.83 839 24.78 2.8 37 44 -8.3 17
04:10 1010 29.83 839 24.78 3 37.4 43 -8.3 17
04:15 1010 29.83 839 24.78 3.1 37.5 43 -8.3 17.1
04:20 1010 29.83 839 24.78 3.2 37.8 43 -8.3 17
04:25 1010 29.83 839 24.78 3.2 37.7 43 -8.3 17
04:30 1010 29.83 839 24.78 3.2 37.8 42 -8.4 16.9
04:35 1010 29.83 839 24.78 2.9 37.3 44 -8.2 17.2
04:40 1009 29.8 839 24.78 2.9 37.2 44 -8 17.5
04:45 1009 29.8 839 24.78 2.7 36.8 45 -8.1 17.4
04:50 1009 29.8 839 24.78 2.7 36.8 45 -8.2 17.2
04:55 1009 29.8 839 24.78 2.7 36.8 45 -8.1 17.5
05:00 1009 29.8 838 24.75 2.9 37.2 43 -8.3 17
05:05 1009 29.8 838 24.75 3.1 37.6 41 -8.8 16.2
05:10 1009 29.8 838 24.75 3.3 38 41 -8.6 16.4
05:15 1009 29.8 838 24.75 3.4 38.1 40 -8.9 16
05:20 1009 29.8 838 24.75 3.6 38.4 41 -8.4 16.8
05:25 1009 29.8 838 24.75 3.5 38.3 42 -8.1 17.3
05:30 1009 29.8 838 24.75 3.4 38.2 44 -7.8 18
05:35 1009 29.8 838 24.75 2.7 36.8 50 -6.7 19.9
05:40 1009 29.8 838 24.75 2 35.7 49 -7.6 18.3
05:45 1009 29.8 838 24.75 2.2 36 46 -8.2 17.3
05:50 1009 29.8 838 24.75 2.5 36.5 46 -7.9 17.7
05:55 1009 29.8 838 24.75 2.4 36.3 48 -7.6 18.3
06:00 1009 29.8 838 24.75 2.1 35.9 50 -7.4 18.8
06:05 1009 29.8 838 24.75 2.3 36.1 47 -7.8 18
06:10 1008 29.77 838 24.75 2.4 36.3 50 -7 19.5
06:15 1008 29.77 838 24.75 2.2 36 50 -7.2 19
06:20 1008 29.77 838 24.75 2.4 36.3 47 -7.8 17.9
06:25 1008 29.77 837 24.72 2.8 37 49 -6.9 19.5
06:30 1008 29.77 837 24.72 2.3 36.2 47 -7.9 17.7
06:35 1008 29.77 837 24.72 2.5 36.4 46 -7.9 17.7
06:40 1008 29.77 837 24.72 2.4 36.3 50 -7.1 19.2
06:45 1008 29.77 837 24.72 2.3 36.1 50 -7.2 19.1
06:50 1008 29.77 837 24.72 2.4 36.3 50 -7.1 19.2
06:55 1008 29.77 837 24.72 2.5 36.5 50 -7 19.5
07:00 1008 29.77 837 24.72 2 35.6 52 -6.9 19.5
07:05 1008 29.77 837 24.72 2.3 36.2 48 -7.5 18.4
07:10 1008 29.77 837 24.72 2.6 36.7 48 -7.4 18.7
07:15 1008 29.77 837 24.72 2.7 36.8 51 -6.5 20.3
07:20 1008 29.77 837 24.72 2.6 36.7 53 -6 21.1
07:25 1007 29.74 837 24.72 2.2 35.9 57 -5.5 22.1
07:30 1007 29.74 837 24.72 1.7 35.1 58 -5.7 21.7
07:35 1007 29.74 837 24.72 1.3 34.3 56 -6.4 20.4
07:40 1007 29.74 837 24.72 1.5 34.7 61 -5.3 22.5
07:45 1007 29.74 837 24.72 1.5 34.6 53 -7 19.4
07:50 1007 29.74 837 24.72 1.9 35.5 53 -6.7 20
07:55 1007 29.74 837 24.72 2.1 35.8 53 -6.6 20.1
08:00 1007 29.74 837 24.72 2 35.5 55 -6.1 21
08:05 1007 29.74 837 24.72 1.4 34.5 57 -6.2 20.9
08:10 1007 29.74 837 24.72 1.1 33.9 60 -5.7 21.7
08:15 1007 29.74 837 24.72 1.2 34.1 57 -6.4 20.5
08:20 1007 29.74 837 24.72 1.7 35.1 55 -6.4 20.4
08:25 1007 29.74 837 24.72 1.9 35.4 57 -5.8 21.6
08:30 1007 29.74 837 24.72 2 35.5 56 -5.9 21.4
08:35 1008 29.77 837 24.72 2 35.5 55 -6.3 20.7
08:40 1008 29.77 837 24.72 2.3 36.2 54 -6 21.2
08:45 1008 29.77 837 24.72 2.6 36.6 53 -6.2 20.9
08:50 1008 29.77 837 24.72 2.2 36 56 -5.7 21.8
08:55 1008 29.77 837 24.72 1.6 34.9 58 -5.8 21.6
09:00 1008 29.77 837 24.72 2.4 36.3 53 -6.1 21
09:05 1008 29.77 837 24.72 2.8 37 52 -6 21.2
09:10 1008 29.77 837 24.72 2.7 36.8 54 -5.7 21.8
09:15 1008 29.77 837 24.72 2.3 36.2 57 -5.4 22.4
09:20 1008 29.77 837 24.72 2.5 36.5 54 -5.8 21.5
09:25 1008 29.77 837 24.72 2.8 37 57 -4.8 23.4
09:30 1008 29.77 837 24.72 2 35.5 59 -5.3 22.4
09:35 1008 29.77 837 24.72 2.4 36.4 56 -5.4 22.2
09:40 1008 29.77 837 24.72 2.4 36.3 57 -5.2 22.7
09:45 1008 29.77 837 24.72 2.4 36.4 53 -6.3 20.7
09:50 1008 29.77 837 24.72 3.2 37.7 50 -6.2 20.8
09:55 1008 29.77 837 24.72 3.4 38 48 -6.5 20.2
10:00 1008 29.77 837 24.72 3.5 38.3 49 -6.3 20.6
10:05 1008 29.77 837 24.72 3.7 38.7 49 -6.1 20.9
10:10 1008 29.77 837 24.72 3.8 38.8 51 -5.4 22.2
10:15 1008 29.77 837 24.72 3 37.5 55 -5.2 22.6
10:20 1007 29.74 837 24.72 3 37.4 55 -5.1 22.7
10:25 1007 29.74 837 24.72 3.4 38.1 54 -5.1 22.8
10:30 1007 29.74 837 24.72 3.9 39 52 -5.1 22.8
10:35 1007 29.74 837 24.72 3.9 39 50 -5.6 21.9
10:40 1007 29.74 836 24.69 4.1 39.4 49 -5.7 21.8
10:45 1007 29.74 837 24.72 4.2 39.6 48 -5.9 21.3
10:50 1007 29.74 836 24.69 4.7 40.5 46 -5.9 21.4
10:55 1007 29.74 836 24.69 5 41 44 -6.1 21
11:00 1007 29.74 836 24.69 5.3 41.5 47 -5.2 22.7
11:05 1007 29.74 836 24.69 5.1 41.2 50 -4.5 23.9
11:10 1007 29.74 836 24.69 4.8 40.6 48 -5.3 22.5
11:15 1007 29.74 836 24.69 5.3 41.5 49 -4.7 23.5
11:20 1007 29.74 836 24.69 5.8 42.5 52 -3.3 26
11:25 1006 29.71 836 24.69 6.3 43.3 49 -3.6 25.6
11:30 1006 29.71 836 24.69 6 42.9 47 -4.3 24.3
11:35 1006 29.71 835 24.66 5.5 41.8 47 -5 23.1
11:40 1006 29.71 835 24.66 6 42.9 47 -4.4 24.1
11:45 1006 29.71 835 24.66 6.4 43.5 46 -4.4 24.1
11:50 1006 29.71 835 24.66 6.8 44.2 46 -4 24.7
11:55 1006 29.71 835 24.66 6.8 44.2 49 -3.3 26
12:00 1006 29.71 835 24.66 6.9 44.4 50 -2.8 27
12:05 1006 29.71 835 24.66 6.8 44.2 51 -2.6 27.3
12:10 1006 29.71 835 24.66 6.6 43.9 55 -1.9 28.7
12:15 1005 29.68 835 24.66 6.5 43.7 54 -2.1 28.2
12:20 1005 29.68 835 24.66 6.8 44.3 50 -2.8 27
12:25 1005 29.68 834 24.63 7.3 45.1 52 -2 28.5
12:30 1005 29.68 834 24.63 7 44.6 52 -2.3 27.9
12:35 1005 29.68 834 24.63 7.2 45 49 -2.7 27.2
12:40 1005 29.68 834 24.63 7.4 45.3 51 -2.1 28.2
12:45 1005 29.68 834 24.63 7.2 45 50 -2.4 27.7
12:50 1005 29.68 834 24.63 7.5 45.4 48 -2.7 27.1
12:55 1005 29.68 834 24.63 7.5 45.4 48 -2.8 26.9
13:00 1005 29.68 834 24.63 7.4 45.3 49 -2.5 27.5
13:05 1005 29.68 834 24.63 7.3 45.1 48 -3 26.7
13:10 1005 29.68 834 24.63 7.3 45.1 47 -3.2 26.2
13:15 1005 29.68 834 24.63 7.7 45.9 44 -3.6 25.5
13:20 1005 29.68 834 24.63 7.6 45.8 46 -3.3 26.1
13:25 1005 29.68 834 24.63 7.6 45.7 47 -3 26.6
13:30 1005 29.68 834 24.63 7.7 45.8 47 -3 26.6
13:35 1005 29.68 834 24.63 7.9 46.1 46 -2.9 26.7
13:40 1005 29.68 834 24.63 7.7 45.9 48 -2.5 27.6
13:45 1005 29.68 834 24.63 7.4 45.3 50 -2.4 27.6
13:50 1005 29.68 834 24.63 7.4 45.3 49 -2.6 27.3
13:55 1005 29.68 834 24.63 7.8 46 48 -2.5 27.6
14:00 1005 29.68 834 24.63 7.7 45.8 52 -1.5 29.2
14:05 1005 29.68 834 24.63 7.1 44.8 52 -2.1 28.3
14:10 1005 29.68 834 24.63 7.2 45 52 -2.1 28.3
14:15 1005 29.68 834 24.63 7.3 45.2 53 -1.6 29.2
14:20 1005 29.68 834 24.63 7.1 44.7 57 -1 30.3
14:25 1005 29.68 834 24.63 6.3 43.4 59 -1 30.2
14:30 1005 29.68 834 24.63 5.9 42.6 60 -1.3 29.6
14:35 1005 29.68 834 24.63 5.9 42.6 60 -1.2 29.8
14:40 1005 29.68 834 24.63 5.9 42.7 60 -1.2 29.8
14:45 1005 29.68 834 24.63 6.1 42.9 59 -1.4 29.6
14:50 1005 29.68 834 24.63 6.1 43.1 58 -1.4 29.5
14:55 1005 29.68 834 24.63 6.2 43.2 58 -1.4 29.4
15:00 1005 29.68 834 24.63 6.3 43.4 58 -1.4 29.4
15:05 1005 29.68 834 24.63 6.3 43.4 57 -1.5 29.3
15:10 1005 29.68 835 24.66 6.5 43.6 55 -1.8 28.8
15:15 1005 29.68 835 24.66 6.5 43.7 55 -1.7 28.9
15:20 1005 29.68 835 24.66 6.6 43.8 56 -1.7 29
15:25 1005 29.68 835 24.66 6.6 43.8 56 -1.6 29.1
15:30 1005 29.68 835 24.66 6.5 43.6 57 -1.5 29.3
15:35 1005 29.68 835 24.66 6.4 43.5 56 -1.7 28.9
15:40 1005 29.68 835 24.66 6.3 43.4 57 -1.6 29.1
15:45 1006 29.71 835 24.66 6.2 43.2 57 -1.7 29
15:50 1006 29.71 835 24.66 6.2 43.2 57 -1.6 29.1
15:55 1006 29.71 835 24.66 6.1 43 57 -1.6 29.1
16:00 1006 29.71 835 24.66 6.2 43.1 57 -1.8 28.8
16:05 1006 29.71 835 24.66 6.2 43.1 56 -1.9 28.6
16:10 1006 29.71 835 24.66 6.1 43.1 56 -1.9 28.6
16:15 1006 29.71 835 24.66 6.1 43.1 58 -1.6 29.1
16:20 1006 29.71 835 24.66 6 42.9 55 -2.2 28
16:25 1006 29.71 835 24.66 6 42.9 57 -1.9 28.7
16:30 1006 29.71 836 24.69 5.6 42.1 61 -1.2 29.8
16:35 1006 29.71 836 24.69 5.1 41.1 64 -1.1 30
16:40 1007 29.74 836 24.69 4.7 40.4 66 -1.1 30.1
16:45 1007 29.74 836 24.69 4.6 40.3 65 -1.3 29.6
16:50 1007 29.74 836 24.69 4.7 40.5 68 -0.7 30.7
16:55 1007 29.74 836 24.69 4.5 40.1 73 0.1 32.2
17:00 1007 29.74 836 24.69 4.1 39.3 76 0.2 32.3
17:05 1007 29.74 836 24.69 3.9 39 76 0.1 32.1
17:10 1007 29.74 836 24.69 3.8 38.8 79 0.4 32.8
17:15 1007 29.74 836 24.69 3.5 38.2 80 0.4 32.7
17:20 1007 29.74 836 24.69 3.3 37.9 82 0.5 32.9
17:25 1007 29.74 836 24.69 3.1 37.6 83 0.5 32.9
17:30 1007 29.74 836 24.69 2.9 37.3 85 0.6 33.1
17:35 1007 29.74 837 24.72 2.5 36.5 87 0.5 32.9
17:40 1007 29.74 837 24.72 2.1 35.8 89 0.5 33
17:45 1007 29.74 837 24.72 2 35.6 89 0.4 32.7
17:50 1008 29.77 837 24.72 2.1 35.7 89 0.4 32.7
17:55 1008 29.77 837 24.72 2.2 35.9 88 0.4 32.7
18:00 1008 29.77 837 24.72 2.1 35.8 89 0.4 32.8
18:05 1008 29.77 837 24.72 2.1 35.9 89 0.5 32.9
18:10 1008 29.77 837 24.72 2.3 36.1 89 0.6 33.1
18:15 1008 29.77 837 24.72 2.2 35.9 89 0.5 33
18:20 1008 29.77 837 24.72 2.3 36.2 89 0.6 33.1
18:25 1008 29.77 837 24.72 2.3 36.2 89 0.6 33.2
18:30 1008 29.77 837 24.72 2.4 36.3 89 0.7 33.3
18:35 1008 29.77 837 24.72 2.4 36.3 89 0.7 33.2
18:40 1008 29.77 837 24.72 2.4 36.2 89 0.7 33.2
18:45 1008 29.77 837 24.72 2.4 36.4 88 0.7 33.2
18:50 1008 29.77 837 24.72 2.4 36.3 89 0.7 33.3
18:55 1008 29.77 837 24.72 2.4 36.3 89 0.7 33.3
19:00 1008 29.77 837 24.72 2.3 36.2 89 0.7 33.3
19:05 1008 29.77 837 24.72 2.2 36 90 0.7 33.3
19:10 1008 29.77 837 24.72 1.9 35.5 92 0.7 33.3
19:15 1008 29.77 837 24.72 1.7 35 93 0.7 33.3
19:20 1008 29.77 837 24.72 1.6 34.9 93 0.7 33.2
19:25 1008 29.77 837 24.72 1.5 34.7 94 0.7 33.2
19:30 1008 29.77 837 24.72 1.7 35 93 0.7 33.2
19:35 1008 29.77 837 24.72 1.6 34.9 94 0.7 33.3
19:40 1008 29.77 837 24.72 1.6 34.9 93 0.6 33.1
19:45 1008 29.77 837 24.72 1.7 35.1 93 0.7 33.2
19:50 1008 29.77 837 24.72 1.8 35.2 93 0.8 33.4
19:55 1008 29.77 837 24.72 1.5 34.7 94 0.7 33.2
20:00 1008 29.77 837 24.72 1.4 34.4 95 0.6 33.1
20:05 1008 29.77 837 24.72 1.3 34.4 95 0.6 33.1
20:10 1008 29.77 837 24.72 1.3 34.3 95 0.6 33.1
20:15 1008 29.77 837 24.72 1.1 34.1 96 0.6 33
20:20 1008 29.77 837 24.72 1.3 34.3 95 0.6 33.1
20:25 1008 29.77 837 24.72 1.5 34.8 93 0.5 33
20:30 1008 29.77 837 24.72 1.8 35.2 92 0.6 33
20:35 1008 29.77 837 24.72 1.9 35.4 91 0.6 33
20:40 1008 29.77 837 24.72 2 35.6 90 0.5 32.9
20:45 1008 29.77 837 24.72 2.1 35.8 90 0.6 33
20:50 1008 29.77 837 24.72 2.2 35.9 89 0.6 33
20:55 1008 29.77 837 24.72 2.2 36 89 0.7 33.2
21:00 1008 29.77 837 24.72 2.1 35.9 90 0.7 33.3
21:05 1008 29.77 838 24.75 2.1 35.8 91 0.7 33.3
21:10 1008 29.77 838 24.75 1.9 35.3 91 0.6 33
21:15 1008 29.77 838 24.75 1.8 35.3 90 0.4 32.6
21:20 1008 29.77 838 24.75 1.7 35.1 91 0.5 32.8
21:25 1009 29.8 838 24.75 1.5 34.7 92 0.4 32.7
21:30 1009 29.8 838 24.75 1.4 34.6 93 0.4 32.7
21:35 1009 29.8 838 24.75 1.3 34.4 93 0.3 32.5
21:40 1008 29.77 838 24.75 1.2 34.2 92 0 32.1
21:45 1008 29.77 838 24.75 1.3 34.4 91 0 32
21:50 1008 29.77 838 24.75 1.4 34.6 89 -0.1 31.8
21:55 1008 29.77 838 24.75 1.6 34.8 86 -0.4 31.2
22:00 1008 29.77 838 24.75 1.9 35.4 83 -0.8 30.6
22:05 1008 29.77 838 24.75 2.2 35.9 81 -0.7 30.7
22:10 1009 29.8 838 24.75 2.2 36 80 -0.8 30.5
22:15 1009 29.8 838 24.75 2.5 36.5 79 -0.9 30.5
22:20 1009 29.8 838 24.75 2.5 36.5 80 -0.5 31
22:25 1009 29.8 838 24.75 2.4 36.3 82 -0.4 31.3
22:30 1009 29.8 838 24.75 2.2 35.9 83 -0.4 31.4
22:35 1009 29.8 838 24.75 2.1 35.7 84 -0.3 31.4
22:40 1009 29.8 838 24.75 2.1 35.8 84 -0.3 31.4
22:45 1009 29.8 838 24.75 2 35.6 85 -0.3 31.5
22:50 1009 29.8 838 24.75 1.9 35.4 85 -0.3 31.4
22:55 1009 29.8 838 24.75 2 35.6 84 -0.4 31.2
23:00 1009 29.8 838 24.75 2 35.6 84 -0.4 31.3
23:05 1009 29.8 838 24.75 1.9 35.5 84 -0.5 31.2
23:10 1009 29.8 838 24.75 2 35.5 84 -0.5 31.1
23:15 1009 29.8 838 24.75 1.9 35.4 84 -0.5 31.1
23:20 1009 29.8 838 24.75 1.9 35.4 85 -0.4 31.2
23:25 1009 29.8 838 24.75 1.8 35.2 85 -0.5 31.1
23:30 1009 29.8 838 24.75 1.7 35 85 -0.5 31
23:35 1009 29.8 838 24.75 1.6 35 85 -0.6 30.9
23:40 1009 29.8 838 24.75 1.7 35.1 85 -0.6 30.9
23:45 1009 29.8 838 24.75 1.7 35.1 85 -0.5 31
23:50 1009 29.8 838 24.75 1.3 34.4 86 -0.7 30.8
23:55 1009 29.8 838 24.75 1.1 33.9 88 -0.7 30.8
24:00 1009 29.8 838 24.75 1 33.8 88 -0.8 30.6